createdAt,value
2023-01-22T00:46:03.818Z,5.22
2023-01-22T00:48:34.855Z,6.37
2023-01-22T00:51:03.024Z,6.22
2023-01-22T00:53:29.982Z,5.47
2023-01-22T00:56:01.963Z,6.15
2023-01-22T00:58:29.592Z,6.30
2023-01-22T01:00:56.944Z,5.20
2023-01-22T01:03:26.998Z,6.63
2023-01-22T01:05:55.551Z,5.47
2023-01-22T01:08:23.311Z,5.40
2023-01-22T01:10:56.784Z,5.18
2023-01-22T01:13:24.412Z,5.22
2023-01-22T01:16:10.800Z,5.35
2023-01-22T01:21:07.451Z,5.60
2023-01-22T01:23:36.655Z,6.18
2023-01-22T01:26:14.379Z,5.70
2023-01-22T01:28:42.676Z,5.75
2023-01-22T01:31:15.615Z,6.03
2023-01-22T01:33:43.184Z,5.90
2023-01-22T01:36:17.204Z,6.68
2023-01-22T01:38:44.873Z,5.70
2023-01-22T01:41:15.564Z,5.68
2023-01-22T01:43:43.385Z,5.03
2023-01-22T01:46:30.629Z,5.28
2023-01-22T01:48:58.048Z,5.38
2023-01-22T01:51:36.008Z,5.47
2023-01-22T01:54:05.352Z,5.05
2023-01-22T01:56:45.060Z,5.03
2023-01-22T01:59:15.329Z,5.32
2023-01-22T02:01:43.889Z,6.10
2023-01-22T02:04:10.921Z,4.88
2023-01-22T02:06:38.026Z,5.57
2023-01-22T02:09:04.974Z,5.78
2023-01-22T02:11:34.303Z,6.65
2023-01-22T02:14:05.568Z,6.18
2023-01-22T02:16:33.312Z,5.38
2023-01-22T02:19:00.251Z,5.57
2023-01-22T02:21:42.369Z,5.70
2023-01-22T02:24:15.475Z,5.60
2023-01-22T02:26:44.486Z,6.25
2023-01-22T02:29:18.087Z,5.72
2023-01-22T02:31:45.408Z,6.68
2023-01-22T02:34:13.299Z,6.82
2023-01-22T02:36:40.540Z,6.10
2023-01-22T02:39:07.811Z,6.78
2023-01-22T02:41:34.949Z,6.43
2023-01-22T02:44:02.785Z,6.47
2023-01-22T02:46:30.579Z,5.80
2023-01-22T02:48:57.553Z,6.57
2023-01-22T02:51:27.018Z,6.15
2023-01-22T02:53:54.296Z,5.63
2023-01-22T02:56:22.038Z,6.15
2023-01-22T02:58:49.367Z,6.25
2023-01-22T03:01:20.812Z,6.32
2023-01-22T03:03:52.279Z,5.25
2023-01-22T03:06:24.432Z,5.97
2023-01-22T03:08:57.777Z,5.50
2023-01-22T03:11:27.487Z,5.97
2023-01-22T03:14:14.368Z,6.00
2023-01-22T03:17:01.342Z,5.63
2023-01-22T03:19:47.060Z,5.45
2023-01-22T03:22:18.741Z,5.63
2023-01-22T03:24:51.396Z,4.95
2023-01-22T03:27:22.788Z,5.22
2023-01-22T03:29:50.356Z,5.10
2023-01-22T03:32:19.661Z,4.97
2023-01-22T03:34:46.604Z,5.63
2023-01-22T03:37:14.673Z,5.18
2023-01-22T03:39:44.632Z,5.78
2023-01-22T03:42:18.630Z,5.57
2023-01-22T03:44:45.797Z,4.80
2023-01-22T03:47:13.237Z,4.47
2023-01-22T03:49:40.350Z,5.40
2023-01-22T03:52:07.354Z,5.45
2023-01-22T03:54:34.483Z,5.55
2023-01-22T03:57:04.060Z,5.28
2023-01-22T03:59:37.339Z,5.47
2023-01-22T04:02:04.471Z,5.15
2023-01-22T04:04:36.948Z,5.20
2023-01-22T04:07:04.175Z,5.32
2023-01-22T04:09:31.157Z,5.40
2023-01-22T04:11:59.033Z,5.45
2023-01-22T04:14:27.723Z,5.60
2023-01-22T04:16:58.104Z,6.70
2023-01-22T04:19:47.924Z,5.63
2023-01-22T04:22:33.553Z,5.88
2023-01-22T04:25:01.688Z,5.30
2023-01-22T04:27:28.601Z,5.10
2023-01-22T04:29:58.181Z,5.30
2023-01-22T04:32:25.393Z,5.05
2023-01-22T04:35:31.358Z,4.43
2023-01-22T04:37:59.771Z,5.05
2023-01-22T04:40:26.907Z,5.00
2023-01-22T04:42:55.297Z,5.65
2023-01-22T04:45:23.700Z,4.97
2023-01-22T04:47:50.841Z,5.75
2023-01-22T04:50:24.547Z,5.88
2023-01-22T04:52:53.237Z,5.63
2023-01-22T04:55:21.061Z,5.90
2023-01-22T04:58:04.186Z,5.90
2023-01-22T05:00:31.623Z,5.68
2023-01-22T05:03:02.635Z,5.88
2023-01-22T05:05:32.256Z,5.55
2023-01-22T05:08:00.280Z,5.68
2023-01-22T05:10:28.976Z,5.20
2023-01-22T05:12:56.417Z,5.03
2023-01-22T05:15:25.538Z,6.05
2023-01-22T05:17:56.903Z,5.25
2023-01-22T05:20:23.843Z,5.43
2023-01-22T05:22:51.057Z,5.22
2023-01-22T05:25:22.514Z,5.50
2023-01-22T05:27:49.425Z,5.13
2023-01-22T05:30:28.081Z,5.40
2023-01-22T05:32:59.908Z,5.60
2023-01-22T05:35:28.339Z,5.93
2023-01-22T05:37:57.074Z,5.40
2023-01-22T05:40:24.753Z,5.28
2023-01-22T05:42:52.996Z,5.28
2023-01-22T05:45:21.649Z,5.45
2023-01-22T05:48:07.339Z,5.30
2023-01-22T05:50:43.925Z,4.43
2023-01-22T05:53:12.602Z,5.50
2023-01-22T05:55:39.629Z,5.00
2023-01-22T05:58:06.833Z,5.95
2023-01-22T06:00:35.388Z,5.10
2023-01-22T06:03:05.449Z,5.45
2023-01-22T06:05:42.789Z,4.80
2023-01-22T06:08:11.305Z,5.15
2023-01-22T06:10:49.025Z,5.38
2023-01-22T06:13:19.282Z,5.32
2023-01-22T06:15:50.533Z,5.65
2023-01-22T06:18:35.687Z,5.88
2023-01-22T06:21:07.807Z,5.15
2023-01-22T06:23:35.407Z,4.55
2023-01-22T06:26:04.260Z,5.63
2023-01-22T06:28:31.507Z,4.57
2023-01-22T06:31:08.181Z,5.03
2023-01-22T06:33:37.806Z,4.82
2023-01-22T06:36:05.870Z,4.75
2023-01-22T06:38:33.274Z,4.65
2023-01-22T06:41:02.928Z,4.47
2023-01-22T06:43:31.955Z,4.07
2023-01-22T06:45:59.156Z,4.78
2023-01-22T06:48:49.993Z,4.13
2023-01-22T06:51:17.202Z,3.97
2023-01-22T06:53:44.252Z,4.45
2023-01-22T06:56:11.718Z,4.43
2023-01-22T06:58:39.948Z,3.78
2023-01-22T07:01:07.247Z,4.18
2023-01-22T07:03:34.530Z,4.32
2023-01-22T07:06:03.896Z,3.97
2023-01-22T07:08:33.000Z,4.07
2023-01-22T07:11:00.296Z,4.20
2023-01-22T07:13:27.192Z,3.65
2023-01-22T07:15:54.305Z,4.10
2023-01-22T07:18:23.988Z,4.45
2023-01-22T07:20:51.274Z,3.95
2023-01-22T07:23:18.439Z,3.65
2023-01-22T07:25:46.272Z,4.30
2023-01-22T07:28:15.185Z,4.30
2023-01-22T07:30:47.145Z,4.57
2023-01-22T07:33:15.205Z,4.70
2023-01-22T07:35:42.664Z,4.63
2023-01-22T07:38:10.006Z,4.65
2023-01-22T07:40:36.951Z,4.22
2023-01-22T07:43:07.632Z,4.07
2023-01-22T07:45:35.695Z,3.65
2023-01-22T07:48:02.835Z,3.67
2023-01-22T07:50:32.069Z,3.97
2023-01-22T07:53:00.811Z,4.03
2023-01-22T07:55:28.041Z,3.90
2023-01-22T07:58:03.880Z,4.03
2023-01-22T08:00:31.837Z,4.30
2023-01-22T08:02:58.820Z,3.90
2023-01-22T08:05:26.324Z,4.20
2023-01-22T08:07:53.516Z,3.53
2023-01-22T08:10:20.831Z,3.75
2023-01-22T08:12:48.244Z,4.32
2023-01-22T08:15:15.609Z,3.83
2023-01-22T08:17:42.816Z,4.15
2023-01-22T08:20:10.865Z,4.18
2023-01-22T08:22:38.185Z,4.28
2023-01-22T08:25:05.739Z,4.10
2023-01-22T08:27:35.288Z,4.30
2023-01-22T08:30:03.658Z,4.22
2023-01-22T08:32:30.847Z,4.30
2023-01-22T08:34:57.913Z,4.03
2023-01-22T08:37:25.601Z,4.68
2023-01-22T08:39:52.617Z,3.72
2023-01-22T08:42:19.653Z,3.83
2023-01-22T08:44:46.575Z,4.13
2023-01-22T08:47:13.535Z,4.18
2023-01-22T08:49:40.493Z,4.03
2023-01-22T08:52:07.796Z,3.88
2023-01-22T08:54:34.722Z,4.93
2023-01-22T08:57:01.701Z,4.13
2023-01-22T08:59:30.898Z,4.40
2023-01-22T09:02:02.024Z,4.18
2023-01-22T09:04:29.186Z,4.00
2023-01-22T09:06:56.358Z,4.35
2023-01-22T09:09:24.133Z,4.45
2023-01-22T09:11:51.078Z,4.90
2023-01-22T09:14:18.245Z,5.00
2023-01-22T09:16:45.301Z,4.38
2023-01-22T09:19:12.461Z,4.38
2023-01-22T09:21:39.908Z,3.95
2023-01-22T09:24:08.064Z,4.15
2023-01-22T09:26:37.510Z,4.75
2023-01-22T09:29:06.013Z,3.75
2023-01-22T09:31:34.839Z,3.67
2023-01-22T09:34:02.100Z,3.63
2023-01-22T09:36:29.527Z,4.38
2023-01-22T09:38:56.836Z,4.20
2023-01-22T09:41:34.445Z,4.80
2023-01-22T09:44:05.197Z,7.18
2023-01-22T09:46:43.667Z,4.20
2023-01-22T09:49:19.847Z,3.63
2023-01-22T09:51:58.838Z,4.30
2023-01-22T09:54:28.038Z,4.25
2023-01-22T09:56:58.561Z,3.72
2023-01-22T09:59:31.110Z,3.40
2023-01-22T10:02:03.879Z,3.30
2023-01-22T10:04:34.036Z,2.90
2023-01-22T10:07:03.171Z,3.15
2023-01-22T10:09:32.531Z,2.63
2023-01-22T10:12:02.766Z,3.03
2023-01-22T10:14:30.752Z,2.50
2023-01-22T10:17:01.698Z,3.03
2023-01-22T10:19:40.275Z,3.45
2023-01-22T10:22:13.844Z,3.90
2023-01-22T10:24:40.921Z,3.70
2023-01-22T10:27:17.073Z,3.90
2023-01-22T10:30:17.971Z,3.70
2023-01-22T10:32:45.089Z,4.00
2023-01-22T10:35:11.926Z,4.38
2023-01-22T10:37:49.928Z,3.75
2023-01-22T10:40:35.114Z,4.40
2023-01-22T10:43:12.783Z,3.90
2023-01-22T10:45:51.284Z,4.18
2023-01-22T10:48:18.751Z,3.78
2023-01-22T10:50:46.842Z,4.28
2023-01-22T10:53:20.130Z,4.07
2023-01-22T10:55:56.380Z,4.35
2023-01-22T10:58:27.231Z,3.88
2023-01-22T11:01:01.431Z,4.60
2023-01-22T11:03:38.577Z,3.78
2023-01-22T11:06:24.457Z,3.80
2023-01-22T11:09:00.532Z,3.88
2023-01-22T11:11:34.940Z,4.38
2023-01-22T11:14:12.157Z,3.92
2023-01-22T11:16:40.368Z,4.00
2023-01-22T11:19:14.683Z,3.13
2023-01-22T11:21:52.854Z,3.63
2023-01-22T11:24:37.899Z,3.03
2023-01-22T11:27:27.072Z,3.47
2023-01-22T11:30:09.648Z,3.10
2023-01-22T11:33:13.576Z,2.90
2023-01-22T11:36:09.879Z,3.17
2023-01-22T11:38:51.399Z,3.03
2023-01-22T11:41:38.820Z,2.85
2023-01-22T11:44:33.107Z,3.00
2023-01-22T11:47:37.098Z,2.50
2023-01-22T11:50:30.888Z,2.70
2023-01-22T11:53:23.239Z,2.92
2023-01-22T11:56:23.833Z,2.35
2023-01-22T11:59:15.281Z,2.67
2023-01-22T12:01:51.103Z,2.33
2023-01-22T12:04:29.987Z,2.60
2023-01-22T12:07:09.922Z,2.63
2023-01-22T12:09:47.831Z,2.22
2023-01-22T12:12:42.799Z,3.10
2023-01-22T12:15:32.392Z,3.25
2023-01-22T12:18:48.810Z,2.88
2023-01-22T12:21:34.263Z,2.15
2023-01-22T12:24:19.487Z,2.50
2023-01-22T12:27:03.940Z,2.35
2023-01-22T12:29:44.929Z,2.53
2023-01-22T12:32:15.539Z,2.30
2023-01-22T12:34:52.803Z,2.28
2023-01-22T12:37:24.492Z,2.30
2023-01-22T12:40:29.854Z,2.22
2023-01-22T12:43:01.682Z,2.00
2023-01-22T12:45:48.050Z,3.00
2023-01-22T12:48:35.388Z,2.60
2023-01-22T12:51:02.377Z,2.10
2023-01-22T12:53:34.849Z,1.60
2023-01-22T12:56:10.727Z,1.65
2023-01-22T12:58:40.453Z,1.92
2023-01-22T13:01:10.479Z,2.67
2023-01-22T13:03:39.428Z,2.58
2023-01-22T13:06:21.707Z,2.42
2023-01-22T13:08:48.923Z,2.50
2023-01-22T13:11:51.170Z,1.50
2023-01-22T13:14:27.562Z,1.50
2023-01-22T13:17:20.332Z,1.60
2023-01-22T13:19:50.585Z,1.10
2023-01-22T13:22:22.025Z,3.13
2023-01-22T13:24:50.023Z,1.70
2023-01-22T13:27:33.275Z,1.45
2023-01-22T13:30:27.978Z,1.67
2023-01-22T13:33:12.660Z,3.15
2023-01-22T13:35:46.994Z,1.50
2023-01-22T13:38:26.540Z,2.42
2023-01-22T13:41:04.737Z,3.38
2023-01-22T13:43:33.940Z,2.58
2023-01-22T13:46:01.142Z,2.40
2023-01-22T13:48:29.163Z,2.35
2023-01-22T13:51:02.281Z,2.53
2023-01-22T13:53:33.211Z,2.53
2023-01-22T13:56:01.335Z,2.33
2023-01-22T13:58:49.482Z,2.08
2023-01-22T14:01:33.103Z,3.30
2023-01-22T14:04:02.449Z,2.90
2023-01-22T14:06:29.875Z,2.30
2023-01-22T14:08:58.756Z,2.05
2023-01-22T14:11:25.654Z,2.42
2023-01-22T14:13:54.125Z,2.25
2023-01-22T14:16:21.279Z,2.45
2023-01-22T14:18:48.315Z,2.65
2023-01-22T14:21:15.467Z,1.77
2023-01-22T14:23:42.896Z,1.90
2023-01-22T14:26:10.022Z,1.83
2023-01-22T14:28:37.642Z,1.90
2023-01-22T14:31:07.974Z,2.15
2023-01-22T14:33:36.050Z,2.95
2023-01-22T14:36:03.095Z,2.90
2023-01-22T14:38:30.325Z,2.50
2023-01-22T14:40:57.638Z,2.28
2023-01-22T14:43:24.610Z,2.83
2023-01-22T14:45:52.001Z,2.60
2023-01-22T14:48:20.734Z,3.15
2023-01-22T14:50:48.920Z,2.95
2023-01-22T14:53:17.250Z,2.55
2023-01-22T14:55:45.519Z,2.72
2023-01-22T14:58:12.502Z,2.50
2023-01-22T15:00:39.966Z,2.83
2023-01-22T15:03:06.923Z,3.10
2023-01-22T15:05:35.554Z,3.30
2023-01-22T15:08:03.116Z,2.90
2023-01-22T15:10:30.599Z,2.70
2023-01-22T15:12:59.334Z,3.20
2023-01-22T15:15:32.035Z,2.42
2023-01-22T15:17:59.301Z,2.85
2023-01-22T15:20:26.619Z,2.63
2023-01-22T15:22:53.894Z,1.95
2023-01-22T15:25:20.785Z,1.50
2023-01-22T15:27:47.751Z,1.88
2023-01-22T15:30:15.181Z,2.20
2023-01-22T15:32:42.288Z,2.10
2023-01-22T15:35:09.566Z,2.65
2023-01-22T15:37:36.613Z,2.25
2023-01-22T15:40:04.524Z,1.80
2023-01-22T15:42:32.278Z,2.50
2023-01-22T15:45:02.722Z,2.25
2023-01-22T15:47:29.839Z,2.35
2023-01-22T15:49:56.717Z,2.63
2023-01-22T15:52:23.656Z,2.67
2023-01-22T15:54:55.757Z,2.22
2023-01-22T15:57:23.029Z,2.10
2023-01-22T15:59:51.640Z,2.55
2023-01-22T16:02:18.757Z,2.17
2023-01-22T16:04:45.815Z,2.33
2023-01-22T16:07:12.805Z,2.33
2023-01-22T16:09:39.931Z,2.40
2023-01-22T16:12:07.429Z,2.28
2023-01-22T16:14:34.524Z,2.45
2023-01-22T16:17:01.893Z,2.45
2023-01-22T16:19:29.179Z,2.20
2023-01-22T16:21:56.186Z,2.45
2023-01-22T16:24:23.973Z,2.38
2023-01-22T16:26:50.985Z,2.30
2023-01-22T16:29:17.950Z,1.95
2023-01-22T16:31:45.245Z,1.98
2023-01-22T16:34:15.837Z,1.90
2023-01-22T16:36:44.351Z,2.13
2023-01-22T16:39:20.671Z,2.22
2023-01-22T16:41:50.006Z,1.77
2023-01-22T16:44:19.864Z,1.70
2023-01-22T16:46:49.759Z,1.67
2023-01-22T16:49:22.334Z,1.75
2023-01-22T16:51:54.525Z,1.60
2023-01-22T16:54:30.873Z,1.85
2023-01-22T16:57:00.113Z,1.23
2023-01-22T16:59:28.159Z,1.38
2023-01-22T17:01:58.442Z,1.35
2023-01-22T17:04:26.558Z,1.30
2023-01-22T17:06:56.085Z,1.30
2023-01-22T17:09:26.447Z,1.48
2023-01-22T17:11:58.851Z,1.52
2023-01-22T17:14:29.945Z,1.35
2023-01-22T17:16:58.676Z,2.00
2023-01-22T17:19:26.061Z,1.42
2023-01-22T17:21:58.084Z,1.65
2023-01-22T17:24:26.605Z,1.70
2023-01-22T17:26:53.965Z,1.67
2023-01-22T17:29:22.276Z,1.60
2023-01-22T17:31:49.929Z,1.50
2023-01-22T17:34:17.144Z,2.05
2023-01-22T17:36:44.511Z,1.70
2023-01-22T17:39:16.981Z,2.17
2023-01-22T17:41:47.349Z,2.28
2023-01-22T17:44:14.522Z,2.25
2023-01-22T17:46:41.857Z,1.85
2023-01-22T17:49:12.917Z,2.00
2023-01-22T17:51:40.195Z,1.55
2023-01-22T17:54:08.070Z,1.88
2023-01-22T17:56:46.769Z,2.28
2023-01-22T17:59:14.213Z,1.75
2023-01-22T18:01:41.334Z,1.55
2023-01-22T18:04:11.921Z,1.80
2023-01-22T18:06:40.877Z,1.90
2023-01-22T18:09:09.463Z,2.35
2023-01-22T18:11:37.982Z,2.00
2023-01-22T18:14:07.702Z,2.03
2023-01-22T18:16:37.245Z,2.10
2023-01-22T18:19:07.355Z,2.63
2023-01-22T18:21:39.189Z,2.20
2023-01-22T18:24:08.221Z,2.72
2023-01-22T18:26:36.297Z,2.55
2023-01-22T18:29:04.577Z,3.70
2023-01-22T18:31:32.206Z,3.38
2023-01-22T18:34:02.415Z,3.25
2023-01-22T18:36:35.271Z,3.33
2023-01-22T18:39:05.051Z,4.15
2023-01-22T18:41:32.780Z,3.83
2023-01-22T18:44:03.553Z,4.20
2023-01-22T18:46:33.954Z,5.10
2023-01-22T18:49:04.303Z,4.80
2023-01-22T18:51:33.025Z,5.47
2023-01-22T18:54:02.116Z,4.93
2023-01-22T18:56:29.237Z,5.22
2023-01-22T18:58:57.636Z,5.28
2023-01-22T19:01:28.610Z,5.38
2023-01-22T19:04:01.634Z,6.15
2023-01-22T19:06:31.442Z,6.30
2023-01-22T19:09:02.750Z,5.38
2023-01-22T19:11:35.389Z,5.30
2023-01-22T19:14:07.318Z,4.00
2023-01-22T19:16:35.229Z,5.45
2023-01-22T19:19:07.935Z,5.60
2023-01-22T19:21:34.850Z,5.45
2023-01-22T19:24:02.281Z,5.10
2023-01-22T19:26:34.583Z,5.80
2023-01-22T19:29:08.442Z,5.63
2023-01-22T19:31:39.050Z,4.40
2023-01-22T19:34:07.149Z,5.03
2023-01-22T19:36:36.596Z,5.15
2023-01-22T19:39:09.627Z,5.03
2023-01-22T19:41:37.694Z,4.63
2023-01-22T19:44:05.157Z,4.57
2023-01-22T19:46:32.647Z,3.95
2023-01-22T19:49:00.166Z,3.65
2023-01-22T19:51:27.543Z,4.85
2023-01-22T19:53:54.935Z,4.65
2023-01-22T19:56:27.498Z,4.55
2023-01-22T19:58:59.413Z,4.20
2023-01-22T20:01:26.412Z,5.18
2023-01-22T20:03:55.120Z,4.90
2023-01-22T20:06:23.474Z,4.43
2023-01-22T20:08:56.862Z,5.13
2023-01-22T20:11:24.653Z,4.57
2023-01-22T20:13:51.880Z,4.65
2023-01-22T20:16:24.468Z,5.00
2023-01-22T20:18:55.031Z,4.63
2023-01-22T20:21:26.729Z,5.43
2023-01-22T20:23:53.905Z,5.53
2023-01-22T20:26:21.669Z,5.43
2023-01-22T20:28:49.845Z,4.95
2023-01-22T20:31:20.155Z,5.60
2023-01-22T20:33:47.598Z,4.57
2023-01-22T20:36:16.292Z,4.78
2023-01-22T20:38:45.952Z,5.07
2023-01-22T20:41:14.124Z,4.88
2023-01-22T20:43:43.122Z,5.47
2023-01-22T20:46:22.980Z,5.82
2023-01-22T20:48:52.457Z,5.93
2023-01-22T20:51:25.919Z,5.65
2023-01-22T20:53:54.336Z,5.13
2023-01-22T20:56:23.970Z,6.20
2023-01-22T20:59:01.220Z,5.93
2023-01-22T21:01:29.202Z,5.78
2023-01-22T21:03:58.431Z,6.65
2023-01-22T21:06:28.092Z,6.15
2023-01-22T21:08:56.486Z,5.85
2023-01-22T21:11:24.417Z,5.85
2023-01-22T21:13:53.105Z,5.85
2023-01-22T21:16:30.981Z,5.90
2023-01-22T21:19:00.797Z,6.53
2023-01-22T21:21:29.394Z,6.80
2023-01-22T21:23:57.208Z,6.78
2023-01-22T21:26:27.864Z,6.50
2023-01-22T21:29:04.114Z,6.97
2023-01-22T21:31:31.624Z,7.30
2023-01-22T21:34:04.403Z,8.13
2023-01-22T21:36:38.966Z,6.95
2023-01-22T21:39:09.162Z,6.60
2023-01-22T21:41:37.350Z,7.13
2023-01-22T21:44:23.470Z,7.40
2023-01-22T21:46:50.876Z,7.80
2023-01-22T21:49:22.672Z,7.03
2023-01-22T21:51:54.157Z,6.35
2023-01-22T21:54:25.741Z,7.25
2023-01-22T21:56:53.476Z,7.90
2023-01-22T21:59:20.480Z,7.72
2023-01-22T22:01:47.673Z,7.55
2023-01-22T22:04:15.238Z,7.60
2023-01-22T22:06:42.670Z,7.78
2023-01-22T22:09:13.877Z,7.50
2023-01-22T22:11:40.851Z,7.00
2023-01-22T22:14:10.080Z,7.07
2023-01-22T22:16:37.715Z,6.90
2023-01-22T22:19:04.875Z,7.30
2023-01-22T22:21:31.911Z,7.10
2023-01-22T22:23:58.845Z,8.35
2023-01-22T22:26:26.339Z,7.47
2023-01-22T22:28:53.558Z,7.65
2023-01-22T22:31:21.301Z,8.25
2023-01-22T22:33:51.597Z,7.07
2023-01-22T22:36:24.619Z,7.80
2023-01-22T22:38:53.221Z,6.72
2023-01-22T22:41:23.634Z,7.43
2023-01-22T22:43:53.729Z,7.82
2023-01-22T22:46:27.353Z,7.30
2023-01-22T22:48:56.387Z,7.57
2023-01-22T22:51:29.246Z,7.38
2023-01-22T22:53:59.921Z,6.97
2023-01-22T22:56:28.171Z,7.60
2023-01-22T22:58:55.899Z,7.80
2023-01-22T23:01:25.664Z,7.93
2023-01-22T23:03:53.710Z,7.63
2023-01-22T23:06:24.126Z,7.63
2023-01-22T23:08:54.920Z,7.82
2023-01-22T23:11:25.357Z,7.45
2023-01-22T23:13:53.035Z,6.82
2023-01-22T23:16:22.751Z,7.85
2023-01-22T23:18:51.929Z,8.38
2023-01-22T23:21:24.107Z,7.57
2023-01-22T23:23:53.020Z,7.50
2023-01-22T23:26:28.119Z,7.40
2023-01-22T23:28:58.021Z,7.75
2023-01-22T23:31:26.826Z,7.65
2023-01-22T23:33:55.693Z,7.93
2023-01-22T23:36:23.805Z,8.27
2023-01-22T23:38:50.743Z,8.60
2023-01-22T23:41:19.984Z,8.23
2023-01-22T23:43:47.658Z,7.97
2023-01-22T23:46:17.619Z,7.72
2023-01-22T23:48:45.131Z,7.63
2023-01-22T23:51:14.703Z,7.43
2023-01-22T23:53:44.429Z,7.65
2023-01-22T23:56:12.635Z,8.65
2023-01-22T23:58:40.760Z,7.60
